Skip Navigation Links Skip Navigation Links

Current Weather

Pautuxent River NAS/Trapnell Field, Patuxent River, Md.

For information only: do not use for flight planning or navigation.
Latest weather
Observation time Sunday, August 1, 2021 7:09 AM EDT
Local time Sunday, August 1, 2021 7:45 AM EDT
Flight conditions Marginal Visual Meteorological Conditions
Winds
Wind direction South (190°)
Wind speed 13 mph
Visibility 3 mi.
Present weather rain, mist
Sky condition
Ceiling 6,000 ft. broken clouds
Cloud layer few clouds 1,500 ft.
Cloud layer broken clouds 6,000 ft.
Cloud layer overcast 8,000 ft.
Temperature 70°F
Dewpoint 67°F
Altimeter 29.90 in.Hg
Precipitation
Precipitation last hour 0.04 in.
Derived measurements
Relative humidity 90%
Density altitude 1081 ft.
Remarks
Special weather observation.
System requires maintenance.
Automated weather observing station with precipitation discriminator.
METAR SPECI KNHK 011109Z 19011KT 3SM RA BR FEW015 BKN060 OVC080 21/19 A2990 RMK AO2 T2 SET P0004 T02110194 $

Settings

Location code

InnerDrive.Weather 4.0.6770.0 Release CLR 4.0.30319.42000
Copyright ©2018 Inner Drive Technology. All rights reserved. Portions Copyright ©1986-2018 David Braverman.

Find weather

Site navigation


Skip Navigation Links

Place info

Page info

PayPal - The safer, easier way to pay online!

Return home.

Copyright ©2021 Inner Drive Technology. Purveyors of fine, hand-crafted computer software. Page printed 2021-08-01T11:45:24 UTC.